Alconbury RAF, United Kingdom

9:20 AM BST on August 22, 2014 (GMT +0100)
Cambridgeshire | Change Station
CLOSE
Current Station
Personal Weather Station
Location: St Ives, CAMBRIDGESHIRE
Elevation: 95 ft
Nearby Weather Stations

Elev 95 ft 52.34 °N, 0.09 °W | Updated 12 minutes ago

Mostly Cloudy
Mostly Cloudy
58.8 °F
Feels Like 58.8 °F
N
4.0
Wind Variable Wind from WNW
Gusts 4.0 mph

Today
High -- | Low -- °F
--% Chance of Precip.
Yesterday
High -- | Low -- °F
Precip. -- in
5:55 AM 8:11 PM
Waning Crescent, 9% visible
Pressure 29.77 in
Visibility 6.2 miles
Clouds Few 1300 ft
Mostly Cloudy 7000 ft
Dew Point 52 °F
Humidity 78%
Rainfall 0.00 in
Snow Depth Not available.
UV 1 out of 12
Pollen Not available.
Air Quality Not available.
Flu Activity Not available.
METAR EGXT 220750Z AUTO 29009KT 9999 FEW013/// BKN070/// 13/10 Q1008

More Conditions Fewer Conditions

Pressure 29.77 in
Visibility 6.2 miles
Clouds Few 1300 ft
Mostly Cloudy 7000 ft
Dew Point 52 °F
Humidity 78%
Rainfall 0.00 in
Snow Depth Not available.
UV 1 out of 12
Pollen Not available.
Air Quality Not available.
Flu Activity Not available.
METAR EGXT 220750Z AUTO 29009KT 9999 FEW013/// BKN070/// 13/10 Q1008

More Conditions Fewer Conditions

10-Day Weather Forecast

Almanac

Astronomy

Aug. 22, 2014 Rise Set
Actual Time 5:55 AM BST 8:11 PM BST
Civil Twilight 5:17 AM BST 8:48 PM BST
Nautical Twilight 4:30 AM BST 9:35 PM BST
Astronomical Twilight 3:35 AM BST 10:29 PM BST
Moon 2:53 AM BST 6:18 PM BST
Length of Visible Light 15h 30m
Length of Day
14h 16m
Tomorrow will be 3m 50s shorter.
Waning Crescent, 9% of the Moon is Illuminated
Today
Waning Crescent
Aug 25
New
Sep 2
First Quarter
Sep 8
Full
Sep 15
Last Quarter

Yesterday's Extremes

Country Highs Country Lows

Community

WunderPhotos

Upload Photos

1,746,144 photos uploaded!

Nearby

Snow Depth

Not available.

Earthquake Activity

City Distance Mag. Time & Date
No recent earthquake activity has been reported nearby.
Minimum magnitude displayed is 2.5.

Coastal Water Temperatures

Place Temperature
No Stations Reporting

Nearby Weather Stations